sensor_id;sensor_type;location;lat;lon;timestamp;pressure;altitude;pressure_sealevel;temperature;humidity
34034;BME280;63481;52.588;22.472;2023-01-28T00:01:12;100984.42;;;-1.09;100.00
34034;BME280;63481;52.588;22.472;2023-01-28T00:02:04;100984.30;;;-1.10;100.00
34034;BME280;63481;52.588;22.472;2023-01-28T00:02:57;100983.30;;;-1.11;100.00
34034;BME280;63481;52.588;22.472;2023-01-28T00:03:51;100987.54;;;-1.11;100.00
34034;BME280;63481;52.588;22.472;2023-01-28T00:04:45;100989.25;;;-1.11;99.99
34034;BME280;63481;52.588;22.472;2023-01-28T00:05:38;100988.39;;;-1.09;100.00
34034;BME280;63481;52.588;22.472;2023-01-28T00:06:31;100988.48;;;-1.08;100.00
34034;BME280;63481;52.588;22.472;2023-01-28T00:07:24;100990.54;;;-1.07;100.00
34034;BME280;63481;52.588;22.472;2023-01-28T00:08:17;100988.41;;;-1.09;100.00
34034;BME280;63481;52.588;22.472;2023-01-28T00:09:10;100988.65;;;-1.10;100.00
34034;BME280;63481;52.588;22.472;2023-01-28T00:10:04;100988.56;;;-1.11;100.00
34034;BME280;63481;52.588;22.472;2023-01-28T00:11:01;100987.30;;;-1.13;100.00
34034;BME280;63481;52.588;22.472;2023-01-28T00:11:54;100989.09;;;-1.11;100.00
34034;BME280;63481;52.588;22.472;2023-01-28T00:12:47;100985.99;;;-1.12;99.99
34034;BME280;63481;52.588;22.472;2023-01-28T00:13:40;100987.92;;;-1.12;100.00
34034;BME280;63481;52.588;22.472;2023-01-28T00:14:33;100988.13;;;-1.10;100.00
34034;BME280;63481;52.588;22.472;2023-01-28T00:15:25;100985.51;;;-1.10;99.99
34034;BME280;63481;52.588;22.472;2023-01-28T00:16:19;100985.76;;;-1.13;100.00
34034;BME280;63481;52.588;22.472;2023-01-28T00:17:11;100986.61;;;-1.13;99.97
34034;BME280;63481;52.588;22.472;2023-01-28T00:18:04;100987.92;;;-1.10;100.00
34034;BME280;63481;52.588;22.472;2023-01-28T00:18:56;100984.83;;;-1.08;99.96
34034;BME280;63481;52.588;22.472;2023-01-28T00:19:49;100988.20;;;-1.09;100.00
34034;BME280;63481;52.588;22.472;2023-01-28T00:20:41;100983.67;;;-1.06;100.00
34034;BME280;63481;52.588;22.472;2023-01-28T00:21:34;100983.60;;;-1.06;100.00
34034;BME280;63481;52.588;22.472;2023-01-28T00:22:26;100984.98;;;-1.10;99.96
34034;BME280;63481;52.588;22.472;2023-01-28T00:23:19;100987.14;;;-1.09;99.94
34034;BME280;63481;52.588;22.472;2023-01-28T00:24:12;100990.52;;;-1.09;100.00
34034;BME280;63481;52.588;22.472;2023-01-28T00:25:05;100990.45;;;-1.11;99.97
34034;BME280;63481;52.588;22.472;2023-01-28T00:25:58;100992.16;;;-1.08;99.96
34034;BME280;63481;52.588;22.472;2023-01-28T00:26:51;100990.83;;;-1.09;100.00
34034;BME280;63481;52.588;22.472;2023-01-28T00:27:43;100991.65;;;-1.06;99.99
34034;BME280;63481;52.588;22.472;2023-01-28T00:28:36;100990.09;;;-1.06;99.94
34034;BME280;63481;52.588;22.472;2023-01-28T00:29:30;100990.33;;;-1.07;99.98
34034;BME280;63481;52.588;22.472;2023-01-28T00:30:22;100990.59;;;-1.08;99.88
34034;BME280;63481;52.588;22.472;2023-01-28T00:31:20;100985.77;;;-1.09;99.90
34034;BME280;63481;52.588;22.472;2023-01-28T00:32:13;100986.95;;;-1.08;99.86
34034;BME280;63481;52.588;22.472;2023-01-28T00:33:06;100985.10;;;-1.09;99.90
34034;BME280;63481;52.588;22.472;2023-01-28T00:33:59;100981.59;;;-1.14;99.89
34034;BME280;63481;52.588;22.472;2023-01-28T00:34:51;100982.89;;;-1.17;99.91
34034;BME280;63481;52.588;22.472;2023-01-28T00:35:44;100983.15;;;-1.16;99.99
34034;BME280;63481;52.588;22.472;2023-01-28T00:36:36;100984.33;;;-1.10;99.97
34034;BME280;63481;52.588;22.472;2023-01-28T00:37:31;100984.09;;;-1.12;99.97
34034;BME280;63481;52.588;22.472;2023-01-28T00:38:24;100980.73;;;-1.14;99.90
34034;BME280;63481;52.588;22.472;2023-01-28T00:39:17;100983.92;;;-1.15;99.82
34034;BME280;63481;52.588;22.472;2023-01-28T00:40:10;100984.23;;;-1.16;99.84
34034;BME280;63481;52.588;22.472;2023-01-28T00:41:11;100982.33;;;-1.16;99.89
34034;BME280;63481;52.588;22.472;2023-01-28T00:42:04;100979.58;;;-1.17;99.69
34034;BME280;63481;52.588;22.472;2023-01-28T00:42:57;100978.91;;;-1.15;99.99
34034;BME280;63481;52.588;22.472;2023-01-28T00:43:51;100981.24;;;-1.16;99.88
34034;BME280;63481;52.588;22.472;2023-01-28T00:44:44;100977.02;;;-1.13;99.75
34034;BME280;63481;52.588;22.472;2023-01-28T00:45:36;100979.42;;;-1.15;99.89
34034;BME280;63481;52.588;22.472;2023-01-28T00:46:30;100979.61;;;-1.17;99.90
34034;BME280;63481;52.588;22.472;2023-01-28T00:47:23;100980.20;;;-1.19;99.93
34034;BME280;63481;52.588;22.472;2023-01-28T00:48:15;100977.16;;;-1.23;99.85
34034;BME280;63481;52.588;22.472;2023-01-28T00:49:08;100976.79;;;-1.22;99.77
34034;BME280;63481;52.588;22.472;2023-01-28T00:50:01;100977.03;;;-1.18;99.92
34034;BME280;63481;52.588;22.472;2023-01-28T00:50:53;100978.83;;;-1.16;99.87
34034;BME280;63481;52.588;22.472;2023-01-28T00:51:46;100978.92;;;-1.15;99.91
34034;BME280;63481;52.588;22.472;2023-01-28T00:52:41;100979.31;;;-1.16;99.95
34034;BME280;63481;52.588;22.472;2023-01-28T00:53:34;100979.52;;;-1.14;99.77
34034;BME280;63481;52.588;22.472;2023-01-28T00:54:28;100982.81;;;-1.19;99.77
34034;BME280;63481;52.588;22.472;2023-01-28T00:55:21;100984.46;;;-1.17;99.87
34034;BME280;63481;52.588;22.472;2023-01-28T00:56:16;100980.97;;;-1.17;99.90
34034;BME280;63481;52.588;22.472;2023-01-28T00:57:09;100984.73;;;-1.21;99.89
34034;BME280;63481;52.588;22.472;2023-01-28T00:58:02;100986.09;;;-1.13;99.82
34034;BME280;63481;52.588;22.472;2023-01-28T00:58:55;100983.02;;;-1.12;99.92
34034;BME280;63481;52.588;22.472;2023-01-28T00:59:48;100981.67;;;-1.15;99.91
34034;BME280;63481;52.588;22.472;2023-01-28T01:00:41;100984.29;;;-1.12;99.81
34034;BME280;63481;52.588;22.472;2023-01-28T01:01:34;100982.04;;;-1.08;99.93
34034;BME280;63481;52.588;22.472;2023-01-28T01:02:27;100983.02;;;-1.09;99.70
34034;BME280;63481;52.588;22.472;2023-01-28T01:03:21;100984.88;;;-1.09;99.80
34034;BME280;63481;52.588;22.472;2023-01-28T01:04:14;100979.88;;;-1.07;99.76
34034;BME280;63481;52.588;22.472;2023-01-28T01:05:19;100978.55;;;-1.11;99.79
34034;BME280;63481;52.588;22.472;2023-01-28T01:06:14;100979.48;;;-1.13;99.85
34034;BME280;63481;52.588;22.472;2023-01-28T01:07:07;100981.34;;;-1.17;99.79
34034;BME280;63481;52.588;22.472;2023-01-28T01:08:01;100983.10;;;-1.17;99.78
34034;BME280;63481;52.588;22.472;2023-01-28T01:08:54;100984.71;;;-1.21;99.67
34034;BME280;63481;52.588;22.472;2023-01-28T01:09:47;100985.65;;;-1.24;99.83
34034;BME280;63481;52.588;22.472;2023-01-28T01:10:40;100984.75;;;-1.26;99.74
34034;BME280;63481;52.588;22.472;2023-01-28T01:11:34;100988.13;;;-1.27;99.86
34034;BME280;63481;52.588;22.472;2023-01-28T01:12:30;100988.51;;;-1.27;99.67
34034;BME280;63481;52.588;22.472;2023-01-28T01:13:23;100988.09;;;-1.26;99.64
34034;BME280;63481;52.588;22.472;2023-01-28T01:14:16;100987.81;;;-1.25;99.75
34034;BME280;63481;52.588;22.472;2023-01-28T01:15:10;100987.59;;;-1.27;99.90
34034;BME280;63481;52.588;22.472;2023-01-28T01:16:12;100986.69;;;-1.28;99.83
34034;BME280;63481;52.588;22.472;2023-01-28T01:17:05;100984.84;;;-1.30;99.66
34034;BME280;63481;52.588;22.472;2023-01-28T01:17:59;100983.71;;;-1.31;99.80
34034;BME280;63481;52.588;22.472;2023-01-28T01:18:52;100981.23;;;-1.33;99.67
34034;BME280;63481;52.588;22.472;2023-01-28T01:19:46;100981.12;;;-1.33;99.82
34034;BME280;63481;52.588;22.472;2023-01-28T01:20:40;100979.83;;;-1.35;99.91
34034;BME280;63481;52.588;22.472;2023-01-28T01:21:37;100980.02;;;-1.28;99.76
34034;BME280;63481;52.588;22.472;2023-01-28T01:22:36;100981.10;;;-1.24;99.84
34034;BME280;63481;52.588;22.472;2023-01-28T01:23:30;100978.14;;;-1.17;99.92
34034;BME280;63481;52.588;22.472;2023-01-28T01:24:23;100975.18;;;-1.10;99.85
34034;BME280;63481;52.588;22.472;2023-01-28T01:25:18;100969.88;;;-1.09;99.89
34034;BME280;63481;52.588;22.472;2023-01-28T01:26:13;100971.63;;;-1.07;99.96
34034;BME280;63481;52.588;22.472;2023-01-28T01:27:06;100967.28;;;-1.11;100.00
34034;BME280;63481;52.588;22.472;2023-01-28T01:28:00;100966.08;;;-1.14;99.89
34034;BME280;63481;52.588;22.472;2023-01-28T01:28:54;100966.59;;;-1.14;99.98
34034;BME280;63481;52.588;22.472;2023-01-28T01:29:48;100965.46;;;-1.13;99.93
34034;BME280;63481;52.588;22.472;2023-01-28T01:30:41;100962.14;;;-1.13;99.89
34034;BME280;63481;52.588;22.472;2023-01-28T01:31:34;100960.13;;;-1.16;99.75
34034;BME280;63481;52.588;22.472;2023-01-28T01:32:31;100959.08;;;-1.16;99.80
34034;BME280;63481;52.588;22.472;2023-01-28T01:33:24;100960.80;;;-1.16;99.93
34034;BME280;63481;52.588;22.472;2023-01-28T01:34:18;100958.12;;;-1.15;99.92
34034;BME280;63481;52.588;22.472;2023-01-28T01:35:11;100953.98;;;-1.15;99.89
34034;BME280;63481;52.588;22.472;2023-01-28T01:36:06;100955.95;;;-1.21;99.76
34034;BME280;63481;52.588;22.472;2023-01-28T01:36:59;100952.79;;;-1.25;99.73
34034;BME280;63481;52.588;22.472;2023-01-28T01:37:53;100957.10;;;-1.25;99.64
34034;BME280;63481;52.588;22.472;2023-01-28T01:38:46;100959.74;;;-1.25;99.77
34034;BME280;63481;52.588;22.472;2023-01-28T01:39:39;100958.57;;;-1.24;99.64
34034;BME280;63481;52.588;22.472;2023-01-28T01:40:31;100960.18;;;-1.24;99.88
34034;BME280;63481;52.588;22.472;2023-01-28T01:41:30;100958.98;;;-1.20;99.73
34034;BME280;63481;52.588;22.472;2023-01-28T01:42:24;100957.06;;;-1.20;99.82
34034;BME280;63481;52.588;22.472;2023-01-28T01:43:21;100957.27;;;-1.20;99.68
34034;BME280;63481;52.588;22.472;2023-01-28T01:45:58;100954.40;;;-1.26;99.72
34034;BME280;63481;52.588;22.472;2023-01-28T01:46:52;100950.58;;;-1.22;99.77
34034;BME280;63481;52.588;22.472;2023-01-28T01:48:00;100952.32;;;-1.19;99.80
34034;BME280;63481;52.588;22.472;2023-01-28T01:48:55;100957.71;;;-1.24;99.65
34034;BME280;63481;52.588;22.472;2023-01-28T01:49:49;100955.11;;;-1.24;99.59
34034;BME280;63481;52.588;22.472;2023-01-28T01:50:53;100956.23;;;-1.23;99.80
34034;BME280;63481;52.588;22.472;2023-01-28T01:51:51;100956.99;;;-1.21;99.71
34034;BME280;63481;52.588;22.472;2023-01-28T01:52:48;100958.75;;;-1.21;99.71
34034;BME280;63481;52.588;22.472;2023-01-28T01:53:47;100960.65;;;-1.26;99.66
34034;BME280;63481;52.588;22.472;2023-01-28T01:54:43;100963.50;;;-1.24;99.77
34034;BME280;63481;52.588;22.472;2023-01-28T01:55:41;100959.98;;;-1.21;99.60
34034;BME280;63481;52.588;22.472;2023-01-28T01:56:38;100960.34;;;-1.24;99.58
34034;BME280;63481;52.588;22.472;2023-01-28T01:57:33;100956.20;;;-1.25;99.71
34034;BME280;63481;52.588;22.472;2023-01-28T01:58:31;100958.33;;;-1.23;99.55
34034;BME280;63481;52.588;22.472;2023-01-28T01:59:28;100955.64;;;-1.22;99.71
34034;BME280;63481;52.588;22.472;2023-01-28T02:00:21;100955.66;;;-1.22;99.55
34034;BME280;63481;52.588;22.472;2023-01-28T02:01:14;100958.83;;;-1.22;99.72
34034;BME280;63481;52.588;22.472;2023-01-28T02:02:08;100956.98;;;-1.23;99.70
34034;BME280;63481;52.588;22.472;2023-01-28T02:03:03;100960.45;;;-1.23;99.53
34034;BME280;63481;52.588;22.472;2023-01-28T02:04:06;100957.78;;;-1.17;99.61
34034;BME280;63481;52.588;22.472;2023-01-28T02:05:01;100958.63;;;-1.12;99.61
34034;BME280;63481;52.588;22.472;2023-01-28T02:05:54;100962.45;;;-1.17;99.64
34034;BME280;63481;52.588;22.472;2023-01-28T02:06:47;100966.40;;;-1.18;99.73
34034;BME280;63481;52.588;22.472;2023-01-28T02:07:45;100969.13;;;-1.17;99.65
34034;BME280;63481;52.588;22.472;2023-01-28T02:08:38;100974.23;;;-1.16;99.68
34034;BME280;63481;52.588;22.472;2023-01-28T02:09:34;100969.41;;;-1.09;99.64
34034;BME280;63481;52.588;22.472;2023-01-28T02:10:30;100972.05;;;-1.12;99.57
34034;BME280;63481;52.588;22.472;2023-01-28T02:11:28;100969.98;;;-1.12;99.49
34034;BME280;63481;52.588;22.472;2023-01-28T02:12:34;100969.09;;;-1.12;99.50
34034;BME280;63481;52.588;22.472;2023-01-28T02:13:32;100970.29;;;-1.12;99.49
34034;BME280;63481;52.588;22.472;2023-01-28T02:14:29;100969.86;;;-1.13;99.50
34034;BME280;63481;52.588;22.472;2023-01-28T02:15:24;100976.05;;;-1.14;99.44
34034;BME280;63481;52.588;22.472;2023-01-28T02:16:17;100979.73;;;-1.15;99.34
34034;BME280;63481;52.588;22.472;2023-01-28T02:17:10;100979.95;;;-1.15;99.48
34034;BME280;63481;52.588;22.472;2023-01-28T02:18:03;100980.00;;;-1.21;99.42
34034;BME280;63481;52.588;22.472;2023-01-28T02:18:56;100979.78;;;-1.23;99.42
34034;BME280;63481;52.588;22.472;2023-01-28T02:20:00;100979.19;;;-1.24;99.43
34034;BME280;63481;52.588;22.472;2023-01-28T02:22:00;100978.65;;;-1.28;99.56
34034;BME280;63481;52.588;22.472;2023-01-28T02:25:36;100978.44;;;-1.30;99.52
34034;BME280;63481;52.588;22.472;2023-01-28T02:30:21;100975.93;;;-1.27;99.49
34034;BME280;63481;52.588;22.472;2023-01-28T02:35:54;100974.40;;;-1.25;99.59
34034;BME280;63481;52.588;22.472;2023-01-28T02:37:53;100974.30;;;-1.24;99.83
34034;BME280;63481;52.588;22.472;2023-01-28T02:38:48;100974.52;;;-1.25;99.71
34034;BME280;63481;52.588;22.472;2023-01-28T02:39:48;100978.80;;;-1.26;99.78
34034;BME280;63481;52.588;22.472;2023-01-28T02:40:46;100976.33;;;-1.28;99.77
34034;BME280;63481;52.588;22.472;2023-01-28T02:42:03;100976.90;;;-1.28;99.67
34034;BME280;63481;52.588;22.472;2023-01-28T02:42:58;100978.27;;;-1.28;99.80
34034;BME280;63481;52.588;22.472;2023-01-28T02:43:51;100978.34;;;-1.29;99.77
34034;BME280;63481;52.588;22.472;2023-01-28T02:44:44;100982.61;;;-1.28;99.79
34034;BME280;63481;52.588;22.472;2023-01-28T02:45:36;100983.37;;;-1.24;99.90
34034;BME280;63481;52.588;22.472;2023-01-28T02:46:47;100981.59;;;-1.23;99.67
34034;BME280;63481;52.588;22.472;2023-01-28T02:47:58;100979.37;;;-1.24;99.80
34034;BME280;63481;52.588;22.472;2023-01-28T02:48:51;100980.53;;;-1.26;99.76
34034;BME280;63481;52.588;22.472;2023-01-28T02:49:52;100982.11;;;-1.25;99.83
34034;BME280;63481;52.588;22.472;2023-01-28T02:50:56;100980.73;;;-1.26;99.61
34034;BME280;63481;52.588;22.472;2023-01-28T02:53:34;100986.64;;;-1.23;99.85
34034;BME280;63481;52.588;22.472;2023-01-28T02:54:41;100983.53;;;-1.19;99.74
34034;BME280;63481;52.588;22.472;2023-01-28T02:57:55;100983.21;;;-1.17;99.81
34034;BME280;63481;52.588;22.472;2023-01-28T03:01:43;100979.58;;;-1.15;99.85
34034;BME280;63481;52.588;22.472;2023-01-28T03:02:55;100986.21;;;-1.15;99.78
34034;BME280;63481;52.588;22.472;2023-01-28T03:06:11;100984.63;;;-1.17;99.60
34034;BME280;63481;52.588;22.472;2023-01-28T03:07:08;100983.64;;;-1.23;99.51
34034;BME280;63481;52.588;22.472;2023-01-28T03:08:05;100981.77;;;-1.21;99.71
34034;BME280;63481;52.588;22.472;2023-01-28T03:09:21;100985.31;;;-1.14;99.59
34034;BME280;63481;52.588;22.472;2023-01-28T03:10:17;100984.00;;;-1.13;99.42
34034;BME280;63481;52.588;22.472;2023-01-28T03:11:11;100984.56;;;-1.11;99.56
34034;BME280;63481;52.588;22.472;2023-01-28T03:12:25;100981.27;;;-1.07;99.54
34034;BME280;63481;52.588;22.472;2023-01-28T03:13:39;100979.39;;;-1.03;99.47
34034;BME280;63481;52.588;22.472;2023-01-28T03:14:59;100978.45;;;-1.09;99.44
34034;BME280;63481;52.588;22.472;2023-01-28T03:16:12;100978.14;;;-1.12;99.41
34034;BME280;63481;52.588;22.472;2023-01-28T03:17:54;100981.45;;;-1.14;99.46
34034;BME280;63481;52.588;22.472;2023-01-28T03:19:10;100984.77;;;-1.19;99.27
34034;BME280;63481;52.588;22.472;2023-01-28T03:20:25;100983.60;;;-1.20;99.30
34034;BME280;63481;52.588;22.472;2023-01-28T03:21:43;100982.33;;;-1.14;99.18
34034;BME280;63481;52.588;22.472;2023-01-28T03:23:00;100983.52;;;-1.16;99.19
34034;BME280;63481;52.588;22.472;2023-01-28T03:24:31;100982.70;;;-1.17;99.16
34034;BME280;63481;52.588;22.472;2023-01-28T03:25:44;100979.71;;;-1.16;98.95
34034;BME280;63481;52.588;22.472;2023-01-28T03:27:02;100981.42;;;-1.11;99.09
34034;BME280;63481;52.588;22.472;2023-01-28T03:28:22;100982.04;;;-1.15;99.09
34034;BME280;63481;52.588;22.472;2023-01-28T03:29:35;100982.11;;;-1.14;98.98
34034;BME280;63481;52.588;22.472;2023-01-28T03:31:01;100978.70;;;-1.14;99.02
34034;BME280;63481;52.588;22.472;2023-01-28T03:32:16;100982.42;;;-1.15;98.99
34034;BME280;63481;52.588;22.472;2023-01-28T03:33:31;100981.42;;;-1.14;98.98
34034;BME280;63481;52.588;22.472;2023-01-28T03:34:45;100982.20;;;-1.15;98.97
34034;BME280;63481;52.588;22.472;2023-01-28T03:35:57;100981.52;;;-1.15;99.01
34034;BME280;63481;52.588;22.472;2023-01-28T03:37:11;100981.53;;;-1.13;98.80
34034;BME280;63481;52.588;22.472;2023-01-28T03:38:16;100979.19;;;-1.09;98.88
34034;BME280;63481;52.588;22.472;2023-01-28T03:39:12;100982.07;;;-1.11;98.61
34034;BME280;63481;52.588;22.472;2023-01-28T03:40:07;100978.60;;;-1.16;98.67
34034;BME280;63481;52.588;22.472;2023-01-28T03:41:02;100983.28;;;-1.15;98.63
34034;BME280;63481;52.588;22.472;2023-01-28T03:42:02;100981.44;;;-1.14;98.41
34034;BME280;63481;52.588;22.472;2023-01-28T03:42:56;100983.41;;;-1.14;98.50
34034;BME280;63481;52.588;22.472;2023-01-28T03:43:59;100980.82;;;-1.17;98.58
34034;BME280;63481;52.588;22.472;2023-01-28T03:45:11;100977.70;;;-1.18;98.56
34034;BME280;63481;52.588;22.472;2023-01-28T03:46:05;100978.25;;;-1.18;98.45
34034;BME280;63481;52.588;22.472;2023-01-28T03:46:58;100981.83;;;-1.17;98.46
34034;BME280;63481;52.588;22.472;2023-01-28T03:47:52;100982.83;;;-1.16;98.50
34034;BME280;63481;52.588;22.472;2023-01-28T03:48:45;100985.95;;;-1.16;98.23
34034;BME280;63481;52.588;22.472;2023-01-28T03:49:43;100988.98;;;-1.20;98.35
34034;BME280;63481;52.588;22.472;2023-01-28T03:50:45;100985.20;;;-1.21;98.47
34034;BME280;63481;52.588;22.472;2023-01-28T03:51:39;100987.11;;;-1.23;98.25
34034;BME280;63481;52.588;22.472;2023-01-28T03:52:32;100985.45;;;-1.19;98.34
34034;BME280;63481;52.588;22.472;2023-01-28T03:53:38;100982.95;;;-1.23;98.31
34034;BME280;63481;52.588;22.472;2023-01-28T03:54:32;100985.67;;;-1.22;98.37
34034;BME280;63481;52.588;22.472;2023-01-28T03:55:25;100984.78;;;-1.22;98.30
34034;BME280;63481;52.588;22.472;2023-01-28T03:56:19;100985.06;;;-1.18;98.40
34034;BME280;63481;52.588;22.472;2023-01-28T03:57:17;100986.92;;;-1.15;98.38
34034;BME280;63481;52.588;22.472;2023-01-28T03:58:11;100985.95;;;-1.16;98.38
34034;BME280;63481;52.588;22.472;2023-01-28T03:59:05;100983.95;;;-1.17;98.26
34034;BME280;63481;52.588;22.472;2023-01-28T03:59:58;100984.56;;;-1.21;98.30
34034;BME280;63481;52.588;22.472;2023-01-28T04:00:53;100983.33;;;-1.21;98.29
34034;BME280;63481;52.588;22.472;2023-01-28T04:01:45;100982.83;;;-1.16;98.19
34034;BME280;63481;52.588;22.472;2023-01-28T04:02:39;100983.44;;;-1.17;98.10
34034;BME280;63481;52.588;22.472;2023-01-28T04:03:32;100984.05;;;-1.16;98.31
34034;BME280;63481;52.588;22.472;2023-01-28T04:04:30;100983.45;;;-1.11;98.39
34034;BME280;63481;52.588;22.472;2023-01-28T04:05:24;100983.25;;;-1.10;98.23
34034;BME280;63481;52.588;22.472;2023-01-28T04:06:18;100982.83;;;-1.16;98.33
34034;BME280;63481;52.588;22.472;2023-01-28T04:07:32;100981.55;;;-1.23;98.19
34034;BME280;63481;52.588;22.472;2023-01-28T04:08:48;100981.39;;;-1.18;98.37
34034;BME280;63481;52.588;22.472;2023-01-28T04:10:04;100983.00;;;-1.14;98.20
34034;BME280;63481;52.588;22.472;2023-01-28T04:11:07;100983.42;;;-1.15;98.16
34034;BME280;63481;52.588;22.472;2023-01-28T04:12:11;100983.00;;;-1.11;98.25
34034;BME280;63481;52.588;22.472;2023-01-28T04:13:10;100981.23;;;-1.04;98.22
34034;BME280;63481;52.588;22.472;2023-01-28T04:14:03;100982.11;;;-1.00;98.08
34034;BME280;63481;52.588;22.472;2023-01-28T04:15:09;100984.69;;;-1.06;98.19
34034;BME280;63481;52.588;22.472;2023-01-28T04:16:09;100982.84;;;-1.14;97.97
34034;BME280;63481;52.588;22.472;2023-01-28T04:17:07;100985.95;;;-1.14;98.14
34034;BME280;63481;52.588;22.472;2023-01-28T04:18:03;100982.14;;;-1.16;98.10
34034;BME280;63481;52.588;22.472;2023-01-28T04:18:56;100981.39;;;-1.18;97.92
34034;BME280;63481;52.588;22.472;2023-01-28T04:19:51;100978.74;;;-1.15;97.97
34034;BME280;63481;52.588;22.472;2023-01-28T04:20:47;100978.59;;;-1.16;98.00
34034;BME280;63481;52.588;22.472;2023-01-28T04:21:41;100974.73;;;-1.08;98.04
34034;BME280;63481;52.588;22.472;2023-01-28T04:22:34;100975.82;;;-1.11;97.97
34034;BME280;63481;52.588;22.472;2023-01-28T04:23:28;100978.20;;;-1.11;97.87
34034;BME280;63481;52.588;22.472;2023-01-28T04:24:24;100983.60;;;-1.12;97.99
34034;BME280;63481;52.588;22.472;2023-01-28T04:25:17;100981.56;;;-1.11;98.06
34034;BME280;63481;52.588;22.472;2023-01-28T04:26:10;100981.36;;;-1.15;97.94
34034;BME280;63481;52.588;22.472;2023-01-28T04:27:03;100983.28;;;-1.15;97.90
34034;BME280;63481;52.588;22.472;2023-01-28T04:27:57;100981.09;;;-1.16;97.82
34034;BME280;63481;52.588;22.472;2023-01-28T04:28:52;100982.42;;;-1.18;97.81
34034;BME280;63481;52.588;22.472;2023-01-28T04:29:45;100978.53;;;-1.22;97.86
34034;BME280;63481;52.588;22.472;2023-01-28T04:30:56;100984.76;;;-1.22;97.89
34034;BME280;63481;52.588;22.472;2023-01-28T04:32:00;100982.01;;;-1.19;97.98
34034;BME280;63481;52.588;22.472;2023-01-28T04:33:20;100985.31;;;-1.22;97.81
34034;BME280;63481;52.588;22.472;2023-01-28T04:34:24;100983.05;;;-1.22;97.96
34034;BME280;63481;52.588;22.472;2023-01-28T04:35:29;100987.77;;;-1.22;97.79
34034;BME280;63481;52.588;22.472;2023-01-28T04:36:35;100982.12;;;-1.23;97.95
34034;BME280;63481;52.588;22.472;2023-01-28T04:37:48;100983.20;;;-1.22;98.01
34034;BME280;63481;52.588;22.472;2023-01-28T04:38:56;100982.65;;;-1.24;98.00
34034;BME280;63481;52.588;22.472;2023-01-28T04:40:05;100982.64;;;-1.23;97.84
34034;BME280;63481;52.588;22.472;2023-01-28T04:41:14;100983.58;;;-1.22;98.02
34034;BME280;63481;52.588;22.472;2023-01-28T04:42:08;100984.63;;;-1.24;97.99
34034;BME280;63481;52.588;22.472;2023-01-28T04:43:33;100984.66;;;-1.20;98.01
34034;BME280;63481;52.588;22.472;2023-01-28T04:44:45;100983.70;;;-1.12;97.79
34034;BME280;63481;52.588;22.472;2023-01-28T04:45:59;100990.25;;;-1.18;98.00
34034;BME280;63481;52.588;22.472;2023-01-28T04:47:27;100989.33;;;-1.14;97.95
34034;BME280;63481;52.588;22.472;2023-01-28T04:48:30;100992.17;;;-1.10;97.87
34034;BME280;63481;52.588;22.472;2023-01-28T04:49:53;100988.54;;;-1.13;97.97
34034;BME280;63481;52.588;22.472;2023-01-28T04:51:08;100991.80;;;-1.15;97.94
34034;BME280;63481;52.588;22.472;2023-01-28T04:52:12;100993.41;;;-1.11;97.85
34034;BME280;63481;52.588;22.472;2023-01-28T04:53:21;100991.64;;;-1.06;97.94
34034;BME280;63481;52.588;22.472;2023-01-28T04:54:22;100991.27;;;-1.10;97.64
34034;BME280;63481;52.588;22.472;2023-01-28T04:55:15;100996.26;;;-1.09;97.84
34034;BME280;63481;52.588;22.472;2023-01-28T04:56:08;100993.84;;;-1.12;97.73
34034;BME280;63481;52.588;22.472;2023-01-28T04:57:01;100992.96;;;-1.16;97.71
34034;BME280;63481;52.588;22.472;2023-01-28T04:57:55;100995.50;;;-1.18;97.76
34034;BME280;63481;52.588;22.472;2023-01-28T04:58:47;100995.23;;;-1.19;97.69
34034;BME280;63481;52.588;22.472;2023-01-28T04:59:41;100993.44;;;-1.23;97.48
34034;BME280;63481;52.588;22.472;2023-01-28T05:00:34;100988.48;;;-1.25;97.72
34034;BME280;63481;52.588;22.472;2023-01-28T05:01:28;100990.05;;;-1.27;97.79
34034;BME280;63481;52.588;22.472;2023-01-28T05:02:21;100987.70;;;-1.26;97.64
34034;BME280;63481;52.588;22.472;2023-01-28T05:03:13;100986.60;;;-1.28;97.84
34034;BME280;63481;52.588;22.472;2023-01-28T05:04:07;100990.23;;;-1.29;97.80
34034;BME280;63481;52.588;22.472;2023-01-28T05:05:03;100987.73;;;-1.24;97.78
34034;BME280;63481;52.588;22.472;2023-01-28T05:06:07;100986.59;;;-1.22;97.78
34034;BME280;63481;52.588;22.472;2023-01-28T05:07:09;100988.52;;;-1.27;97.88
34034;BME280;63481;52.588;22.472;2023-01-28T05:08:02;100987.80;;;-1.30;97.97
34034;BME280;63481;52.588;22.472;2023-01-28T05:08:55;100987.14;;;-1.32;97.89
34034;BME280;63481;52.588;22.472;2023-01-28T05:09:48;100990.69;;;-1.33;97.76
34034;BME280;63481;52.588;22.472;2023-01-28T05:10:40;100995.02;;;-1.28;97.87
34034;BME280;63481;52.588;22.472;2023-01-28T05:11:33;100996.20;;;-1.23;97.79
34034;BME280;63481;52.588;22.472;2023-01-28T05:12:29;100994.73;;;-1.22;97.66
34034;BME280;63481;52.588;22.472;2023-01-28T05:13:27;100997.81;;;-1.21;97.84
34034;BME280;63481;52.588;22.472;2023-01-28T05:14:20;101001.20;;;-1.20;97.86
34034;BME280;63481;52.588;22.472;2023-01-28T05:15:20;100999.88;;;-1.23;97.79
34034;BME280;63481;52.588;22.472;2023-01-28T05:16:14;100999.90;;;-1.23;97.88
34034;BME280;63481;52.588;22.472;2023-01-28T05:17:08;101002.94;;;-1.22;97.84
34034;BME280;63481;52.588;22.472;2023-01-28T05:18:01;101001.46;;;-1.21;97.79
34034;BME280;63481;52.588;22.472;2023-01-28T05:19:01;101002.71;;;-1.21;97.75
34034;BME280;63481;52.588;22.472;2023-01-28T05:20:00;101002.84;;;-1.21;97.94
34034;BME280;63481;52.588;22.472;2023-01-28T05:20:54;101003.77;;;-1.26;97.94
34034;BME280;63481;52.588;22.472;2023-01-28T05:21:47;101007.45;;;-1.26;97.67
34034;BME280;63481;52.588;22.472;2023-01-28T05:22:57;101004.70;;;-1.27;97.72
34034;BME280;63481;52.588;22.472;2023-01-28T05:24:01;101005.52;;;-1.26;97.77
34034;BME280;63481;52.588;22.472;2023-01-28T05:24:54;101003.40;;;-1.28;97.77